Nefryt — E5U3177 — position and weather

sailwx.info

Track history (hours):
 
Tides and Currents Weather Stations Pressure Air Temp Water Temp Dewpoint Dewpoint Depression Visibility Wind Speed Wind Dir Waves Ship Positions

Nefryt

Last reported at 2018-Mar-28 03:44 UTC. Time now 2018-Jun-23 14:18 UTC.
Position N 32°28' E 031°12'.
Warning: this ship's position is months out of date.

Length 113 m; draft 8.8 m.

Type: Ship. MMSI: 518100241.

Date/timePositionNaut miles runAvg speedWind from/ knotsBaromVisibWave heightAir tempDewpointWater temp
2018-Mar-28 03:44N 32°28' E 031°12'210.2
2018-Mar-28 03:30N 32°29' E 031°10'36 9.9
2018-Mar-27 23:56N 32°56' E 030°43'4 9.5
2018-Mar-27 23:30N 32°60' E 030°40'8 9.5
2018-Mar-27 22:38N 33°06' E 030°34'1 9.5
2018-Mar-27 22:30N 33°07' E 030°33'7 9.6
2018-Mar-27 21:48N 33°12' E 030°28'7 9.9
2018-Mar-27 21:04N 33°18' E 030°23'31 9.8
2018-Mar-27 17:56N 33°41' E 029°58'  
2018-Mar-20 01:31N 37°31' E 025°55'012.2
2018-Mar-20 01:30N 37°31' E 025°55'232 9.4
2018-Mar-19 00:50N 36°08' E 030°26'1110.8
2018-Mar-18 23:47N 36°15' E 030°36'311.6
2018-Mar-18 23:30N 36°18' E 030°37'611.9
2018-Mar-18 23:00N 36°24' E 030°38'611.9
2018-Mar-18 22:30N 36°30' E 030°39'611.6
2018-Mar-18 22:00N 36°36' E 030°40'611.1
2018-Mar-18 21:30N 36°41' E 030°40'510.7
2018-Mar-18 21:00N 36°47' E 030°40'4 7.7
2018-Mar-18 20:30N 36°50' E 030°38'1 1.8
2018-Mar-18 20:00N 36°50' E 030°37'0 0.0
2018-Mar-18 19:30N 36°50' E 030°37'0 0.0
2018-Mar-18 19:00N 36°50' E 030°37'0 0.0
2018-Mar-18 18:30N 36°50' E 030°37'0 0.0
2018-Mar-18 18:00N 36°50' E 030°37'0 0.0
2018-Mar-18 17:30N 36°50' E 030°37'0 0.0
2018-Mar-18 17:00N 36°50' E 030°37'0 0.0
2018-Mar-18 16:30N 36°50' E 030°37'0 0.0
2018-Mar-18 16:00N 36°50' E 030°37'0 0.0
2018-Mar-18 15:30N 36°50' E 030°37'0 0.0
2018-Mar-18 15:00N 36°50' E 030°37'0 0.0
2018-Mar-18 14:30N 36°50' E 030°37'0 0.0
2018-Mar-18 14:00N 36°50' E 030°37'0 0.0
2018-Mar-18 13:30N 36°50' E 030°37'0 0.0
2018-Mar-18 13:00N 36°50' E 030°37'0 0.0
2018-Mar-18 12:24N 36°50' E 030°37'0 0.0
2018-Mar-18 12:00N 36°50' E 030°37'0 0.0
2018-Mar-18 11:30N 36°50' E 030°37'0 0.0
2018-Mar-18 11:00N 36°50' E 030°37'0 0.0
2018-Mar-18 10:30N 36°50' E 030°37'0 0.0
2018-Mar-18 10:00N 36°50' E 030°37'0 0.0
2018-Mar-18 09:30N 36°50' E 030°37'0 0.0
2018-Mar-18 09:00N 36°50' E 030°37'0 0.0
2018-Mar-18 08:30N 36°50' E 030°37'0 0.0
2018-Mar-18 08:00N 36°50' E 030°37'0 0.0
2018-Mar-18 07:30N 36°50' E 030°37'0 0.0
2018-Mar-18 07:00N 36°50' E 030°37'0 0.0
2018-Mar-18 06:30N 36°50' E 030°37'0 0.0
2018-Mar-18 06:00N 36°50' E 030°37'0 0.0
2018-Mar-18 05:30N 36°50' E 030°37'0 0.0
2018-Mar-18 05:00N 36°50' E 030°37'0 0.0
2018-Mar-18 04:30N 36°50' E 030°37'0 0.0
2018-Mar-18 04:00N 36°50' E 030°37'  
Track history (hours):
 
Tides and Currents Weather Stations Pressure Air Temp Water Temp Dewpoint Dewpoint Depression Visibility Wind Speed Wind Dir Waves Ship Positions

Nefryt

Last reported at 2018-Mar-28 03:44 UTC. Time now 2018-Jun-23 14:18 UTC.
Position N 32°28' E 031°12'.
Warning: this ship's position is months out of date.

Length 113 m; draft 8.8 m.

Type: Ship. MMSI: 518100241.

Date/timePositionNaut miles runAvg speedWind from/ knotsBaromVisibWave heightAir tempDewpointWater temp
2018-Mar-28 03:44N 32°28' E 031°12'210.2
2018-Mar-28 03:30N 32°29' E 031°10'36 9.9
2018-Mar-27 23:56N 32°56' E 030°43'4 9.5
2018-Mar-27 23:30N 32°60' E 030°40'8 9.5
2018-Mar-27 22:38N 33°06' E 030°34'1 9.5
2018-Mar-27 22:30N 33°07' E 030°33'7 9.6
2018-Mar-27 21:48N 33°12' E 030°28'7 9.9
2018-Mar-27 21:04N 33°18' E 030°23'31 9.8
2018-Mar-27 17:56N 33°41' E 029°58'  
2018-Mar-20 01:31N 37°31' E 025°55'012.2
2018-Mar-20 01:30N 37°31' E 025°55'232 9.4
2018-Mar-19 00:50N 36°08' E 030°26'1110.8
2018-Mar-18 23:47N 36°15' E 030°36'311.6
2018-Mar-18 23:30N 36°18' E 030°37'611.9
2018-Mar-18 23:00N 36°24' E 030°38'611.9
2018-Mar-18 22:30N 36°30' E 030°39'611.6
2018-Mar-18 22:00N 36°36' E 030°40'611.1
2018-Mar-18 21:30N 36°41' E 030°40'510.7
2018-Mar-18 21:00N 36°47' E 030°40'4 7.7
2018-Mar-18 20:30N 36°50' E 030°38'1 1.8
2018-Mar-18 20:00N 36°50' E 030°37'0 0.0
2018-Mar-18 19:30N 36°50' E 030°37'0 0.0
2018-Mar-18 19:00N 36°50' E 030°37'0 0.0
2018-Mar-18 18:30N 36°50' E 030°37'0 0.0
2018-Mar-18 18:00N 36°50' E 030°37'0 0.0
2018-Mar-18 17:30N 36°50' E 030°37'0 0.0
2018-Mar-18 17:00N 36°50' E 030°37'0 0.0
2018-Mar-18 16:30N 36°50' E 030°37'0 0.0
2018-Mar-18 16:00N 36°50' E 030°37'0 0.0
2018-Mar-18 15:30N 36°50' E 030°37'0 0.0
2018-Mar-18 15:00N 36°50' E 030°37'0 0.0
2018-Mar-18 14:30N 36°50' E 030°37'0 0.0
2018-Mar-18 14:00N 36°50' E 030°37'0 0.0
2018-Mar-18 13:30N 36°50' E 030°37'0 0.0
2018-Mar-18 13:00N 36°50' E 030°37'0 0.0
2018-Mar-18 12:24N 36°50' E 030°37'0 0.0
2018-Mar-18 12:00N 36°50' E 030°37'0 0.0
2018-Mar-18 11:30N 36°50' E 030°37'0 0.0
2018-Mar-18 11:00N 36°50' E 030°37'0 0.0
2018-Mar-18 10:30N 36°50' E 030°37'0 0.0
2018-Mar-18 10:00N 36°50' E 030°37'0 0.0
2018-Mar-18 09:30N 36°50' E 030°37'0 0.0
2018-Mar-18 09:00N 36°50' E 030°37'0 0.0
2018-Mar-18 08:30N 36°50' E 030°37'0 0.0
2018-Mar-18 08:00N 36°50' E 030°37'0 0.0
2018-Mar-18 07:30N 36°50' E 030°37'0 0.0
2018-Mar-18 07:00N 36°50' E 030°37'0 0.0
2018-Mar-18 06:30N 36°50' E 030°37'0 0.0
2018-Mar-18 06:00N 36°50' E 030°37'0 0.0
2018-Mar-18 05:30N 36°50' E 030°37'0 0.0
2018-Mar-18 05:00N 36°50' E 030°37'0 0.0
2018-Mar-18 04:30N 36°50' E 030°37'0 0.0
2018-Mar-18 04:00N 36°50' E 030°37'  

Dump ship's entire track history